Time;durP1;ratioP1;P1;durP2;ratioP2;P2;SDS_P1;SDS_P2;PMS_P1;PMS_P2;Temp;Humidity;BMP_temperature;BMP_pressure;BME280_temperature;BME280_humidity;BME280_pressure;Samples;Min_cycle;Max_cycle;Signal;HPM_P1;HPM_P2
2021/08/17 00:00:51;;;;;;;10.03;2.87;;;15.60;99.90;;;;;;5032087;22;20238;-79
2021/08/17 00:03:18;;;;;;;10.20;2.53;;;15.60;99.90;;;;;;5007522;28;20211;-78
2021/08/17 00:05:45;;;;;;;12.63;2.50;;;15.60;99.90;;;;;;5007436;28;20619;-81
2021/08/17 00:08:12;;;;;;;9.03;2.50;;;15.60;99.90;;;;;;5009273;28;20320;-79
2021/08/17 00:10:39;;;;;;;9.23;2.57;;;15.60;99.90;;;;;;5006844;28;20211;-80
2021/08/17 00:13:06;;;;;;;11.80;3.00;;;15.60;99.90;;;;;;5006985;28;20198;-80
2021/08/17 00:15:34;;;;;;;9.53;2.50;;;15.60;99.90;;;;;;5013078;28;20241;-79
2021/08/17 00:18:02;;;;;;;7.03;2.47;;;15.70;99.90;;;;;;5046692;28;20195;-77
2021/08/17 00:20:30;;;;;;;16.83;3.33;;;15.70;99.90;;;;;;5013912;28;20210;-80
2021/08/17 00:22:56;;;;;;;9.17;3.40;;;15.60;99.90;;;;;;5006679;28;20199;-78
2021/08/17 00:25:23;;;;;;;8.90;2.87;;;15.70;99.90;;;;;;5007225;28;20211;-81
2021/08/17 00:27:50;;;;;;;12.23;3.40;;;15.70;99.90;;;;;;4991640;28;20243;-80
2021/08/17 00:30:17;;;;;;;11.60;2.70;;;15.70;99.90;;;;;;4987070;28;20215;-80
2021/08/17 00:32:43;;;;;;;10.93;2.60;;;15.70;99.90;;;;;;4987465;28;20215;-80
2021/08/17 00:35:12;;;;;;;8.60;2.70;;;15.70;99.90;;;;;;4988218;28;20234;-78
2021/08/17 00:37:38;;;;;;;9.87;2.67;;;15.70;99.90;;;;;;4986119;28;20511;-77
2021/08/17 00:40:06;;;;;;;6.87;2.43;;;15.70;99.90;;;;;;4986785;28;20588;-78
2021/08/17 00:42:38;;;;;;;10.67;3.27;;;15.80;99.90;;;;;;4987184;28;20627;-80
2021/08/17 00:45:06;;;;;;;8.50;2.17;;;15.80;99.90;;;;;;4986902;28;20608;-79
2021/08/17 00:47:32;;;;;;;10.63;2.67;;;15.80;99.90;;;;;;4988119;28;20240;-80
2021/08/17 00:49:59;;;;;;;9.07;3.57;;;15.80;99.90;;;;;;4986453;28;20211;-82
2021/08/17 00:52:27;;;;;;;8.00;3.27;;;15.80;99.90;;;;;;4987816;28;20216;-79
2021/08/17 00:54:54;;;;;;;8.17;2.30;;;15.80;99.90;;;;;;4986904;28;20214;-79
2021/08/17 00:57:21;;;;;;;7.53;2.30;;;15.80;99.90;;;;;;4987046;28;20204;-81
2021/08/17 00:59:48;;;;;;;9.93;3.20;;;15.80;99.90;;;;;;4987197;28;20232;-77
2021/08/17 01:02:15;;;;;;;11.27;3.50;;;15.90;99.90;;;;;;4987679;28;20207;-78
2021/08/17 01:04:42;;;;;;;9.50;2.83;;;15.90;99.90;;;;;;4987053;28;20208;-79
2021/08/17 01:07:10;;;;;;;9.70;3.10;;;15.90;99.90;;;;;;4987736;28;20310;-78
2021/08/17 01:09:38;;;;;;;11.53;3.07;;;15.90;99.90;;;;;;4986300;28;20217;-81
2021/08/17 01:12:05;;;;;;;12.43;2.73;;;16.00;99.90;;;;;;4986207;28;20199;-82
2021/08/17 01:14:32;;;;;;;12.73;3.13;;;15.90;99.90;;;;;;4988417;28;20618;-79
2021/08/17 01:16:59;;;;;;;9.13;2.90;;;16.00;99.90;;;;;;4986331;28;20200;-79
2021/08/17 01:19:26;;;;;;;9.23;2.47;;;16.00;99.90;;;;;;4986629;28;20211;-80
2021/08/17 01:21:53;;;;;;;11.03;3.27;;;16.00;99.90;;;;;;4986770;28;20218;-79
2021/08/17 01:24:20;;;;;;;11.63;3.00;;;16.00;99.90;;;;;;4986031;28;20235;-80
2021/08/17 01:26:49;;;;;;;12.80;3.77;;;16.00;99.90;;;;;;4985716;28;20853;-80
2021/08/17 01:29:17;;;;;;;7.87;3.03;;;16.00;99.90;;;;;;4985708;28;20222;-78
2021/08/17 01:31:45;;;;;;;11.20;3.13;;;16.10;99.90;;;;;;4985655;28;20203;-78
2021/08/17 01:34:12;;;;;;;11.83;3.00;;;16.10;99.90;;;;;;4986438;28;20208;-80
2021/08/17 01:36:39;;;;;;;9.37;3.17;;;16.10;99.90;;;;;;4987384;28;20203;-80
2021/08/17 01:39:06;;;;;;;14.97;3.43;;;16.10;99.90;;;;;;4987778;28;20267;-81
2021/08/17 01:41:33;;;;;;;8.27;3.00;;;16.10;99.90;;;;;;4988040;28;20200;-79
2021/08/17 01:44:05;;;;;;;8.10;2.80;;;16.00;99.90;;;;;;4991784;28;20725;-79
2021/08/17 01:46:32;;;;;;;10.47;3.00;;;16.00;99.90;;;;;;5006127;28;20218;-78
2021/08/17 01:48:59;;;;;;;7.57;3.07;;;16.00;99.90;;;;;;5005884;28;20206;-79
2021/08/17 01:51:26;;;;;;;10.47;3.23;;;16.00;99.90;;;;;;5005909;28;20230;-81
2021/08/17 01:53:53;;;;;;;8.97;3.20;;;16.00;99.90;;;;;;4993709;28;20218;-78
2021/08/17 01:56:20;;;;;;;9.50;2.97;;;16.00;99.90;;;;;;4985889;28;20219;-82
2021/08/17 01:58:47;;;;;;;10.83;3.33;;;16.00;99.90;;;;;;4984831;28;20501;-78
2021/08/17 02:01:16;;;;;;;6.17;2.77;;;16.00;99.90;;;;;;4984992;28;20242;-78
2021/08/17 02:03:43;;;;;;;7.73;2.77;;;16.10;99.90;;;;;;4985386;28;20251;-80
2021/08/17 02:06:10;;;;;;;7.53;2.67;;;16.10;99.90;;;;;;4985388;28;20208;-80
2021/08/17 02:08:37;;;;;;;7.50;2.73;;;16.10;99.90;;;;;;4984679;28;20603;-79
2021/08/17 02:11:04;;;;;;;11.17;2.67;;;16.10;99.90;;;;;;4985014;28;20199;-80
2021/08/17 02:13:31;;;;;;;7.63;2.87;;;16.10;99.90;;;;;;4985541;28;20214;-77
2021/08/17 02:16:00;;;;;;;12.97;2.57;;;16.20;99.90;;;;;;4984907;28;20722;-79
2021/08/17 02:18:29;;;;;;;9.30;2.50;;;16.10;99.90;;;;;;4985875;28;20196;-78
2021/08/17 02:20:57;;;;;;;8.00;3.00;;;16.20;99.90;;;;;;4986724;28;20207;-78
2021/08/17 02:23:23;;;;;;;5.63;2.47;;;16.10;99.90;;;;;;4989238;28;20594;-78
2021/08/17 02:25:50;;;;;;;15.77;3.17;;;16.10;99.90;;;;;;4989539;28;20212;-80
2021/08/17 02:28:19;;;;;;;7.00;2.87;;;16.20;99.90;;;;;;4988572;28;20223;-80
2021/08/17 02:30:45;;;;;;;10.47;3.13;;;16.20;99.90;;;;;;4989245;28;20204;-82
2021/08/17 02:33:12;;;;;;;7.97;2.63;;;16.20;99.90;;;;;;5000003;28;20207;-79
2021/08/17 02:35:41;;;;;;;6.47;2.70;;;16.20;99.90;;;;;;5008823;28;20340;-79
2021/08/17 02:38:08;;;;;;;11.20;3.20;;;16.20;99.90;;;;;;5008497;28;20207;-76
2021/08/17 02:40:35;;;;;;;7.47;2.87;;;16.20;99.90;;;;;;5009106;28;20202;-79
2021/08/17 02:43:02;;;;;;;10.10;3.33;;;16.20;99.90;;;;;;4990569;28;20208;-78
2021/08/17 02:45:29;;;;;;;8.90;2.90;;;16.20;99.90;;;;;;4989515;28;20208;-83
2021/08/17 02:47:58;;;;;;;13.33;3.93;;;16.20;99.90;;;;;;4989079;28;20231;-80
2021/08/17 02:50:25;;;;;;;10.80;2.40;;;16.30;99.90;;;;;;4990151;28;20291;-80
2021/08/17 02:52:54;;;;;;;9.00;2.93;;;16.30;99.90;;;;;;4993082;28;20208;-79
2021/08/17 02:55:22;;;;;;;6.43;2.53;;;16.30;99.90;;;;;;4991790;28;20207;-79
2021/08/17 02:57:50;;;;;;;10.70;2.97;;;16.30;99.90;;;;;;4994648;28;20192;-81
2021/08/17 03:00:18;;;;;;;8.43;3.10;;;16.30;99.90;;;;;;4994878;28;20247;-83
2021/08/17 03:02:44;;;;;;;11.57;3.40;;;16.40;99.90;;;;;;4994152;28;20195;-82
2021/08/17 03:05:12;;;;;;;6.13;2.50;;;16.40;99.90;;;;;;4993517;28;20200;-81
2021/08/17 03:07:48;;;;;;;6.73;3.40;;;16.40;99.90;;;;;;4992027;28;20223;-83
2021/08/17 03:10:16;;;;;;;8.63;2.77;;;16.40;99.90;;;;;;4991886;28;20210;-77
2021/08/17 03:12:43;;;;;;;7.97;3.07;;;16.40;99.90;;;;;;4990767;28;20501;-82
2021/08/17 03:15:11;;;;;;;9.83;3.17;;;16.40;99.90;;;;;;4990472;28;20195;-81
2021/08/17 03:17:38;;;;;;;7.53;3.60;;;16.40;99.90;;;;;;4989742;28;20208;-81
2021/08/17 03:20:07;;;;;;;6.90;3.40;;;16.50;99.90;;;;;;4990326;28;20200;-81
2021/08/17 03:22:33;;;;;;;8.50;4.10;;;16.50;99.90;;;;;;4991640;28;20472;-81
2021/08/17 03:25:00;;;;;;;7.87;3.97;;;16.60;99.90;;;;;;4989418;28;20212;-80
2021/08/17 03:27:28;;;;;;;7.77;3.57;;;16.60;99.90;;;;;;4990910;28;20628;-80
2021/08/17 03:29:55;;;;;;;11.60;3.40;;;16.50;99.90;;;;;;4990107;28;20203;-82
2021/08/17 03:32:22;;;;;;;11.17;4.70;;;16.50;99.90;;;;;;4997611;28;20215;-79
2021/08/17 03:34:49;;;;;;;9.47;4.17;;;16.50;99.90;;;;;;5009155;28;20218;-82
2021/08/17 03:37:15;;;;;;;11.07;4.37;;;16.50;99.90;;;;;;4997758;28;20211;-79
2021/08/17 03:39:42;;;;;;;10.13;4.60;;;16.50;99.90;;;;;;4988459;28;20207;-79
2021/08/17 03:42:09;;;;;;;12.87;5.00;;;16.50;99.90;;;;;;4990367;28;20209;-81
2021/08/17 03:44:37;;;;;;;9.87;4.77;;;16.40;99.90;;;;;;4989923;28;20898;-78
2021/08/17 03:47:04;;;;;;;11.67;4.73;;;16.40;99.90;;;;;;4989149;28;20619;-78
2021/08/17 03:49:31;;;;;;;10.23;4.97;;;16.40;99.90;;;;;;4991013;28;20207;-81
2021/08/17 03:51:58;;;;;;;11.40;5.10;;;16.40;99.90;;;;;;4989877;28;20216;-81
2021/08/17 03:54:24;;;;;;;6.40;4.47;;;16.30;99.90;;;;;;4989180;28;20212;-81
2021/08/17 03:56:51;;;;;;;14.00;5.23;;;16.30;99.90;;;;;;4989925;28;20608;-80
2021/08/17 03:59:18;;;;;;;11.90;5.97;;;16.30;99.90;;;;;;4989606;28;20263;-78
2021/08/17 04:01:47;;;;;;;13.43;5.20;;;16.30;99.90;;;;;;4988016;28;20207;-78
2021/08/17 04:04:14;;;;;;;11.83;5.83;;;16.20;99.90;;;;;;4988559;28;20219;-77
2021/08/17 04:06:40;;;;;;;14.40;5.73;;;16.30;99.90;;;;;;4987036;28;20286;-80
2021/08/17 04:09:07;;;;;;;12.40;6.40;;;16.20;99.90;;;;;;4987398;28;20335;-77
2021/08/17 04:11:34;;;;;;;14.23;6.00;;;16.20;99.90;;;;;;5002481;28;20200;-80
2021/08/17 04:14:01;;;;;;;13.90;6.07;;;16.20;99.90;;;;;;4998705;28;20210;-79
2021/08/17 04:16:28;;;;;;;12.67;6.17;;;16.20;99.90;;;;;;4993002;28;20192;-81
2021/08/17 04:18:56;;;;;;;13.77;6.00;;;16.20;99.90;;;;;;4993285;28;20200;-83
2021/08/17 04:21:23;;;;;;;15.63;6.73;;;16.30;99.90;;;;;;4990307;28;20199;-80
2021/08/17 04:23:49;;;;;;;17.40;6.40;;;16.20;99.90;;;;;;4988472;28;20204;-80
2021/08/17 04:26:16;;;;;;;13.90;6.60;;;16.20;99.90;;;;;;4989158;28;20235;-76
2021/08/17 04:28:43;;;;;;;12.18;7.07;;;16.20;99.90;;;;;;4988169;28;20235;-81
2021/08/17 04:31:11;;;;;;;11.40;6.20;;;16.20;99.90;;;;;;4989135;28;20211;-81
2021/08/17 04:33:38;;;;;;;13.73;6.30;;;16.20;99.90;;;;;;4988081;28;20278;-80
2021/08/17 04:36:06;;;;;;;15.50;6.90;;;16.20;99.90;;;;;;4989086;28;20215;-78
2021/08/17 04:38:33;;;;;;;15.27;5.70;;;16.20;99.90;;;;;;4988798;28;20208;-80
2021/08/17 04:41:00;;;;;;;15.70;6.73;;;16.20;99.90;;;;;;4988070;28;20220;-85
2021/08/17 04:43:27;;;;;;;13.00;6.97;;;16.20;99.90;;;;;;4986739;28;20211;-78
2021/08/17 04:45:53;;;;;;;13.03;6.73;;;16.30;99.90;;;;;;4986304;28;20222;-79
2021/08/17 04:48:21;;;;;;;13.50;7.47;;;16.30;99.90;;;;;;4987161;28;20235;-78
2021/08/17 04:50:48;;;;;;;10.40;6.63;;;16.20;99.90;;;;;;4985913;28;20561;-80
2021/08/17 04:53:16;;;;;;;14.27;6.47;;;16.30;99.90;;;;;;4986733;28;20215;-78
2021/08/17 04:55:43;;;;;;;15.13;7.13;;;16.30;99.90;;;;;;4986062;28;20504;-77
2021/08/17 04:58:10;;;;;;;16.83;7.97;;;16.30;99.90;;;;;;4987220;28;20208;-79
2021/08/17 05:00:44;;;;;;;11.87;7.17;;;16.30;99.90;;;;;;4986205;28;20234;-80
2021/08/17 05:03:11;;;;;;;11.63;6.75;;;16.20;99.90;;;;;;4985563;28;20266;-80
2021/08/17 05:05:38;;;;;;;14.23;7.67;;;16.20;99.90;;;;;;4986483;28;20211;-77
2021/08/17 05:08:08;;;;;;;14.30;7.70;;;16.20;99.90;;;;;;4986227;28;20782;-77
2021/08/17 05:10:36;;;;;;;13.65;7.15;;;16.20;99.90;;;;;;4985883;28;20286;-77
2021/08/17 05:13:04;;;;;;;15.13;8.20;;;16.30;99.90;;;;;;4986866;28;20565;-80
2021/08/17 05:15:32;;;;;;;17.20;8.80;;;16.30;99.90;;;;;;4987640;28;20231;-79
2021/08/17 05:17:58;;;;;;;16.30;8.03;;;16.30;99.90;;;;;;4985763;28;20204;-78
2021/08/17 05:20:25;;;;;;;19.23;7.87;;;16.40;99.90;;;;;;4987967;28;20209;-78
2021/08/17 05:22:53;;;;;;;17.08;8.90;;;16.40;99.90;;;;;;4986113;28;20215;-77
2021/08/17 05:25:20;;;;;;;18.25;8.25;;;16.40;99.90;;;;;;4986422;28;20227;-78
2021/08/17 05:27:48;;;;;;;16.65;7.70;;;16.40;99.90;;;;;;4985722;28;20228;-79
2021/08/17 05:30:16;;;;;;;18.03;7.90;;;16.40;99.90;;;;;;4986508;28;20330;-78
2021/08/17 05:32:43;;;;;;;17.47;7.80;;;16.50;99.90;;;;;;4985176;28;20203;-78
2021/08/17 05:35:11;;;;;;;15.20;7.93;;;16.50;99.90;;;;;;4985760;28;20207;-78
2021/08/17 05:37:38;;;;;;;19.77;8.20;;;16.50;99.90;;;;;;4987050;28;20204;-78
2021/08/17 05:40:06;;;;;;;18.37;8.70;;;16.50;99.90;;;;;;4986565;28;20211;-81
2021/08/17 05:42:32;;;;;;;18.05;8.82;;;16.50;99.90;;;;;;4987355;28;20839;-81
2021/08/17 05:45:00;;;;;;;13.45;7.70;;;16.60;99.90;;;;;;4986250;28;20504;-80
2021/08/17 05:47:27;;;;;;;15.95;8.27;;;16.80;99.90;;;;;;4987238;28;20212;-83
2021/08/17 05:49:54;;;;;;;12.70;7.88;;;16.80;99.90;;;;;;4986080;28;20200;-78
2021/08/17 05:52:21;;;;;;;12.53;7.13;;;16.80;99.90;;;;;;4986550;28;20215;-79
2021/08/17 05:54:47;;;;;;;15.32;8.82;;;16.80;99.90;;;;;;4985763;28;20199;-77
2021/08/17 05:57:14;;;;;;;17.27;8.10;;;16.80;99.90;;;;;;4986734;28;20204;-79
2021/08/17 05:59:41;;;;;;;16.10;8.53;;;16.90;99.90;;;;;;4986106;28;20246;-82
2021/08/17 06:02:09;;;;;;;16.17;9.85;;;16.90;99.90;;;;;;4987344;28;20208;-84
2021/08/17 06:04:36;;;;;;;17.40;8.23;;;16.90;99.90;;;;;;4987369;28;20218;-79
2021/08/17 06:07:03;;;;;;;17.65;7.88;;;16.90;99.90;;;;;;4985962;28;20596;-80
2021/08/17 06:09:30;;;;;;;17.90;7.82;;;17.00;99.90;;;;;;4985944;28;20675;-82
2021/08/17 06:11:57;;;;;;;16.83;8.18;;;16.90;99.90;;;;;;4987069;28;20212;-79
2021/08/17 06:14:27;;;;;;;12.00;7.35;;;16.90;99.90;;;;;;4986470;28;20587;-78
2021/08/17 06:16:54;;;;;;;15.93;9.05;;;16.90;99.90;;;;;;4990170;28;20215;-78
2021/08/17 06:19:22;;;;;;;17.10;8.32;;;16.90;99.90;;;;;;4988161;28;20196;-79
2021/08/17 06:21:49;;;;;;;19.08;8.27;;;16.90;99.90;;;;;;4986954;28;20208;-77
2021/08/17 06:24:16;;;;;;;16.98;8.50;;;16.90;99.90;;;;;;4987129;28;20212;-79
2021/08/17 06:26:43;;;;;;;14.07;8.55;;;16.90;99.90;;;;;;4986567;28;20235;-79
2021/08/17 06:29:09;;;;;;;20.43;9.30;;;16.80;99.90;;;;;;4990335;28;20216;-80
2021/08/17 06:31:36;;;;;;;27.23;9.50;;;16.90;99.90;;;;;;5006151;28;20203;-83
2021/08/17 06:34:03;;;;;;;20.23;9.55;;;16.90;99.90;;;;;;5005706;28;20202;-83
2021/08/17 06:36:31;;;;;;;17.90;9.25;;;16.90;99.90;;;;;;5005359;28;20211;-83
2021/08/17 06:38:58;;;;;;;21.52;9.38;;;17.00;99.90;;;;;;5003775;28;20230;-82
2021/08/17 06:41:25;;;;;;;16.10;9.30;;;17.00;99.90;;;;;;5004516;28;20501;-78
2021/08/17 06:43:51;;;;;;;19.47;9.50;;;17.00;99.90;;;;;;5004896;28;20230;-80
2021/08/17 06:46:18;;;;;;;16.17;8.63;;;17.10;99.90;;;;;;4992725;28;20211;-78
2021/08/17 06:48:45;;;;;;;18.53;9.13;;;17.20;99.90;;;;;;4985502;28;20224;-77
2021/08/17 06:51:12;;;;;;;18.60;8.80;;;17.20;99.90;;;;;;4986283;28;20219;-82
2021/08/17 06:53:41;;;;;;;21.15;9.63;;;17.20;99.90;;;;;;4987002;28;20208;-78
2021/08/17 06:56:08;;;;;;;22.67;9.57;;;17.20;99.90;;;;;;4987048;28;20328;-79
2021/08/17 06:58:35;;;;;;;19.02;9.40;;;17.20;99.90;;;;;;4986633;28;20212;-80
2021/08/17 07:01:02;;;;;;;17.42;9.77;;;17.20;99.90;;;;;;4986091;28;20232;-79
2021/08/17 07:03:29;;;;;;;20.45;9.15;;;17.20;99.90;;;;;;4986594;28;20204;-81
2021/08/17 07:05:56;;;;;;;19.17;8.20;;;17.20;99.90;;;;;;4986096;28;20211;-81
2021/08/17 07:08:23;;;;;;;23.73;8.95;;;17.30;99.90;;;;;;4986116;28;20228;-77
2021/08/17 07:10:52;;;;;;;13.73;8.40;;;17.30;99.90;;;;;;4997772;28;20514;-77
2021/08/17 07:13:19;;;;;;;16.20;7.82;;;17.30;99.90;;;;;;5008405;28;20203;-78
2021/08/17 07:15:46;;;;;;;16.88;8.27;;;17.50;99.90;;;;;;5006954;28;20203;-77
2021/08/17 07:18:13;;;;;;;18.95;10.25;;;17.50;99.90;;;;;;4987691;28;20555;-78
2021/08/17 07:24:09;;;;;;;14.63;7.43;;;17.90;99.90;;;;;;4938245;28;20559;-77
2021/08/17 07:26:38;;;;;;;13.23;7.35;;;17.90;99.90;;;;;;4986223;28;20223;-77
2021/08/17 07:29:05;;;;;;;16.23;7.78;;;17.90;99.90;;;;;;4987493;28;20687;-79
2021/08/17 07:31:34;;;;;;;13.82;6.90;;;17.90;99.90;;;;;;4987150;28;20196;-79
2021/08/17 07:34:02;;;;;;;15.10;7.10;;;18.00;99.90;;;;;;4987328;28;20680;-77
2021/08/17 07:36:29;;;;;;;13.48;6.93;;;18.00;99.90;;;;;;4987983;28;20211;-76
2021/08/17 07:38:56;;;;;;;15.13;7.38;;;17.90;99.90;;;;;;4984180;28;20211;-78
2021/08/17 07:41:23;;;;;;;16.27;7.22;;;17.90;99.90;;;;;;4987643;28;20211;-82
2021/08/17 07:43:51;;;;;;;13.10;8.05;;;17.80;99.90;;;;;;4986813;28;20204;-82
2021/08/17 07:46:18;;;;;;;12.35;7.82;;;17.70;99.90;;;;;;4986816;28;20208;-77
2021/08/17 07:48:45;;;;;;;20.40;7.88;;;17.70;99.90;;;;;;4986861;28;20235;-77
2021/08/17 07:51:11;;;;;;;14.73;7.10;;;17.70;99.90;;;;;;4987362;28;20204;-78
2021/08/17 07:53:38;;;;;;;12.77;7.60;;;17.70;99.90;;;;;;4986914;28;20310;-78
2021/08/17 07:56:06;;;;;;;16.70;7.43;;;17.80;99.90;;;;;;4987286;28;20207;-79
2021/08/17 07:58:32;;;;;;;14.60;7.30;;;17.80;99.90;;;;;;4987673;28;20214;-83
2021/08/17 08:01:01;;;;;;;17.08;7.10;;;17.80;99.90;;;;;;4986710;28;20246;-81
2021/08/17 08:03:27;;;;;;;12.45;7.13;;;17.90;99.90;;;;;;4987244;28;20222;-82
2021/08/17 08:05:54;;;;;;;19.52;7.47;;;17.90;99.90;;;;;;4986847;28;20204;-78
2021/08/17 08:08:21;;;;;;;13.02;6.57;;;17.90;99.90;;;;;;4992475;28;20214;-79
2021/08/17 08:10:48;;;;;;;11.80;6.57;;;18.00;99.90;;;;;;4987907;28;20208;-78
2021/08/17 08:13:15;;;;;;;11.32;6.55;;;18.00;99.90;;;;;;4990970;28;20208;-79
2021/08/17 08:15:42;;;;;;;14.65;6.85;;;18.00;99.90;;;;;;4989949;28;20223;-78
2021/08/17 08:18:10;;;;;;;14.68;6.38;;;18.00;99.90;;;;;;4989798;28;20263;-79
2021/08/17 08:20:37;;;;;;;12.23;7.38;;;17.90;99.90;;;;;;4989330;28;20600;-78
2021/08/17 08:23:05;;;;;;;18.60;6.40;;;17.90;99.90;;;;;;4987471;28;20597;-79
2021/08/17 08:25:32;;;;;;;14.75;6.07;;;17.80;99.90;;;;;;4987333;28;20955;-81
2021/08/17 08:27:59;;;;;;;13.07;5.85;;;17.80;99.90;;;;;;4987249;28;20227;-82
2021/08/17 08:30:26;;;;;;;10.45;5.38;;;17.80;99.90;;;;;;4986484;28;20231;-79
2021/08/17 08:32:52;;;;;;;11.35;6.35;;;17.90;99.90;;;;;;4987143;28;20215;-81
2021/08/17 08:35:21;;;;;;;11.27;5.88;;;18.00;99.90;;;;;;4987891;28;20316;-78
2021/08/17 08:37:47;;;;;;;9.65;5.35;;;18.10;99.90;;;;;;4987328;28;20203;-78
2021/08/17 08:40:14;;;;;;;10.68;5.70;;;18.10;99.90;;;;;;4987414;28;20200;-79
2021/08/17 08:42:41;;;;;;;10.70;5.38;;;18.10;99.90;;;;;;4986787;28;20208;-79
2021/08/17 08:45:09;;;;;;;12.48;4.90;;;18.10;99.90;;;;;;4985080;28;20208;-76
2021/08/17 08:47:36;;;;;;;11.23;5.13;;;18.10;99.90;;;;;;4986417;28;20211;-80
2021/08/17 08:50:05;;;;;;;10.88;5.22;;;18.00;99.90;;;;;;4985879;28;20224;-78
2021/08/17 08:52:33;;;;;;;11.65;5.63;;;18.00;99.90;;;;;;4986432;28;20211;-78
2021/08/17 08:55:01;;;;;;;10.52;4.53;;;18.00;99.90;;;;;;4985893;28;20196;-79
2021/08/17 08:57:28;;;;;;;11.43;5.53;;;18.00;99.90;;;;;;4987183;28;20308;-80
2021/08/17 08:59:56;;;;;;;8.68;4.65;;;18.00;99.90;;;;;;4986034;28;20239;-77
2021/08/17 09:02:28;;;;;;;9.63;5.10;;;18.00;99.90;;;;;;4985714;28;20619;-78
2021/08/17 09:04:57;;;;;;;11.52;5.57;;;18.10;99.90;;;;;;4986166;28;20207;-80
2021/08/17 09:07:36;;;;;;;13.23;5.78;;;18.00;99.90;;;;;;4986592;28;20212;-77
2021/08/17 09:10:05;;;;;;;11.25;5.65;;;18.10;99.90;;;;;;4985154;28;20227;-79
2021/08/17 09:12:35;;;;;;;9.00;5.07;;;18.00;99.90;;;;;;4985440;28;20489;-77
2021/08/17 09:15:12;;;;;;;9.55;4.85;;;18.00;99.90;;;;;;4985849;28;20203;-82
2021/08/17 09:17:40;;;;;;;8.43;4.32;;;17.90;99.90;;;;;;4985163;28;20214;-78
2021/08/17 09:20:09;;;;;;;11.98;5.00;;;17.90;99.90;;;;;;4985234;28;20278;-80
2021/08/17 09:22:37;;;;;;;8.77;4.65;;;17.90;99.90;;;;;;4984606;28;20200;-78
2021/08/17 09:25:05;;;;;;;7.43;4.25;;;18.00;99.90;;;;;;4984014;28;20211;-80
2021/08/17 09:27:34;;;;;;;9.40;3.90;;;17.90;99.90;;;;;;4984503;28;20530;-79
2021/08/17 09:30:04;;;;;;;7.18;4.40;;;18.00;99.90;;;;;;4995735;28;20235;-79
2021/08/17 09:32:31;;;;;;;8.57;3.55;;;18.10;99.90;;;;;;4995678;28;20220;-81
2021/08/17 09:35:00;;;;;;;9.20;4.07;;;18.10;99.90;;;;;;4984811;28;20212;-79
2021/08/17 09:37:29;;;;;;;8.27;4.22;;;18.20;99.90;;;;;;4985380;28;20218;-78
2021/08/17 09:39:58;;;;;;;7.47;3.67;;;18.20;99.90;;;;;;4984275;28;20196;-78
2021/08/17 09:42:26;;;;;;;8.50;4.20;;;18.30;99.90;;;;;;4984485;28;20616;-81
2021/08/17 09:45:09;;;;;;;10.88;3.80;;;18.20;99.90;;;;;;4983732;28;20207;-78
2021/08/17 09:47:37;;;;;;;8.70;3.78;;;18.10;99.90;;;;;;4984758;28;20282;-78
2021/08/17 09:50:23;;;;;;;6.65;3.45;;;18.10;99.90;;;;;;4984492;28;20231;-78
2021/08/17 09:53:04;;;;;;;12.93;3.75;;;18.00;99.90;;;;;;4984118;28;20196;-79
2021/08/17 09:55:40;;;;;;;6.55;3.75;;;18.00;99.90;;;;;;4984825;28;20192;-78
2021/08/17 09:58:24;;;;;;;9.77;3.88;;;17.90;99.90;;;;;;4984183;28;20214;-79
2021/08/17 10:00:53;;;;;;;9.90;4.15;;;17.90;99.90;;;;;;4983717;28;20232;-79
2021/08/17 10:03:21;;;;;;;10.77;3.80;;;17.90;99.90;;;;;;4985454;28;20208;-79
2021/08/17 10:05:48;;;;;;;8.43;3.80;;;17.90;99.90;;;;;;4984485;28;20203;-78
2021/08/17 10:08:17;;;;;;;10.25;4.40;;;17.80;99.90;;;;;;4985273;28;20589;-78
2021/08/17 10:10:47;;;;;;;9.45;3.58;;;17.80;99.90;;;;;;4983799;28;20718;-80
2021/08/17 10:13:15;;;;;;;6.88;3.30;;;17.80;99.90;;;;;;4985221;28;20760;-79
2021/08/17 10:15:43;;;;;;;5.40;2.83;;;17.80;99.90;;;;;;4985560;28;20215;-80
2021/08/17 10:18:11;;;;;;;4.97;2.90;;;17.70;99.90;;;;;;4984594;28;20286;-80
2021/08/17 10:20:39;;;;;;;8.40;3.25;;;17.60;99.90;;;;;;4984886;28;20200;-81
2021/08/17 10:23:07;;;;;;;10.70;3.75;;;17.50;99.90;;;;;;4985121;28;20601;-82
2021/08/17 10:25:47;;;;;;;6.07;3.40;;;17.50;99.90;;;;;;5004034;28;20886;-82
2021/08/17 10:28:25;;;;;;;6.43;3.22;;;17.40;99.90;;;;;;5004271;28;20782;-80
2021/08/17 10:30:52;;;;;;;7.15;3.60;;;17.30;99.90;;;;;;4986589;28;20227;-81
2021/08/17 10:33:37;;;;;;;8.15;4.00;;;17.30;99.90;;;;;;4986254;28;20231;-87
2021/08/17 10:36:04;;;;;;;6.78;4.00;;;17.20;99.90;;;;;;4987042;28;20200;-80
2021/08/17 10:38:46;;;;;;;11.73;4.63;;;17.20;99.90;;;;;;4985185;28;20759;-83
2021/08/17 10:41:15;;;;;;;8.32;4.40;;;17.10;99.90;;;;;;4986604;28;20275;-80
2021/08/17 10:44:07;;;;;;;8.32;3.72;;;17.10;99.90;;;;;;4990785;28;20196;-82
2021/08/17 10:46:59;;;;;;;8.68;3.75;;;17.00;99.90;;;;;;4982077;28;20211;-83
2021/08/17 10:49:43;;;;;;;4.93;3.65;;;17.00;99.90;;;;;;4986011;28;20228;-83
2021/08/17 10:52:12;;;;;;;10.13;3.97;;;17.00;99.90;;;;;;4988783;28;20239;-81
2021/08/17 10:54:40;;;;;;;9.25;3.40;;;17.00;99.90;;;;;;4989596;28;20198;-83
2021/08/17 10:57:19;;;;;;;5.75;3.17;;;17.00;99.90;;;;;;4992049;28;20208;-83
2021/08/17 10:59:48;;;;;;;7.00;3.25;;;17.00;99.90;;;;;;4991315;28;20534;-83
2021/08/17 11:02:15;;;;;;;5.32;2.58;;;17.00;99.90;;;;;;4991810;28;20784;-83
2021/08/17 11:04:43;;;;;;;5.85;3.17;;;16.90;99.90;;;;;;4992215;28;20211;-85
2021/08/17 11:07:24;;;;;;;7.88;2.38;;;16.90;99.90;;;;;;4993198;28;20207;-84
2021/08/17 11:09:51;;;;;;;6.38;3.00;;;16.90;99.90;;;;;;4991706;28;20306;-83
2021/08/17 11:12:20;;;;;;;7.03;2.75;;;17.00;99.90;;;;;;4990837;28;20216;-85
2021/08/17 11:14:49;;;;;;;8.87;2.33;;;17.00;99.90;;;;;;4994898;28;20297;-83
2021/08/17 11:17:17;;;;;;;5.72;2.72;;;17.00;99.90;;;;;;5004412;28;20211;-83
2021/08/17 11:19:46;;;;;;;7.22;2.90;;;16.90;99.90;;;;;;5010251;28;20272;-83
2021/08/17 11:22:16;;;;;;;8.30;2.95;;;16.90;99.90;;;;;;5010028;28;20206;-82
2021/08/17 11:24:44;;;;;;;14.35;4.40;;;16.80;99.90;;;;;;4998002;28;20242;-82
2021/08/17 11:27:14;;;;;;;9.45;2.60;;;16.80;99.90;;;;;;4990578;28;20223;-80
2021/08/17 11:29:44;;;;;;;5.13;2.50;;;16.70;99.90;;;;;;4990750;28;20548;-82
2021/08/17 11:32:13;;;;;;;8.45;2.92;;;16.70;99.90;;;;;;4992105;28;20212;-81
2021/08/17 11:34:41;;;;;;;7.43;2.87;;;16.60;99.90;;;;;;4998908;28;20210;-85
2021/08/17 11:37:10;;;;;;;5.70;3.00;;;16.60;99.90;;;;;;5011043;28;20222;-83
2021/08/17 11:39:42;;;;;;;7.40;3.73;;;16.60;99.90;;;;;;5012962;28;20195;-85
2021/08/17 11:42:16;;;;;;;8.83;3.63;;;16.50;99.90;;;;;;5013589;28;20207;-85
2021/08/17 11:44:46;;;;;;;9.10;2.90;;;16.50;99.90;;;;;;4998523;28;20207;-85
2021/08/17 11:47:15;;;;;;;7.00;2.53;;;16.40;99.90;;;;;;4993311;28;20215;-85
2021/08/17 11:49:43;;;;;;;3.80;2.50;;;16.50;99.90;;;;;;4996805;28;20702;-86
2021/08/17 11:52:13;;;;;;;5.77;2.43;;;16.50;99.90;;;;;;5012580;28;20219;-82
2021/08/17 11:55:04;;;;;;;4.93;2.58;;;16.50;99.90;;;;;;5011879;28;20552;-85
2021/08/17 11:57:32;;;;;;;4.07;2.25;;;16.50;99.90;;;;;;5000717;28;20211;-84
2021/08/17 12:00:10;;;;;;;6.75;2.83;;;16.60;99.90;;;;;;4991419;28;20837;-85
2021/08/17 12:02:37;;;;;;;10.20;3.40;;;16.60;99.90;;;;;;4989936;28;20211;-84
2021/08/17 12:05:06;;;;;;;6.80;2.90;;;16.50;99.90;;;;;;4989245;28;20208;-85
2021/08/17 12:07:34;;;;;;;4.80;2.70;;;16.60;99.90;;;;;;5000529;28;20210;-83
2021/08/17 12:10:07;;;;;;;7.55;3.35;;;16.50;99.90;;;;;;4998549;28;20254;-86
2021/08/17 12:12:55;;;;;;;3.63;2.13;;;16.50;99.90;;;;;;4993924;28;20200;-82
2021/08/17 12:15:33;;;;;;;5.07;2.33;;;16.50;99.90;;;;;;4992478;28;20200;-83
2021/08/17 12:18:03;;;;;;;7.22;2.75;;;16.50;99.90;;;;;;4992631;28;20235;-85
2021/08/17 12:20:31;;;;;;;3.53;1.90;;;16.50;99.90;;;;;;5011368;28;20212;-84
2021/08/17 12:22:57;;;;;;;5.07;1.90;;;16.50;99.90;;;;;;5011039;28;20210;-83
2021/08/17 12:25:28;;;;;;;3.23;1.93;;;16.50;99.90;;;;;;5011663;28;20191;-85
2021/08/17 12:27:56;;;;;;;4.93;2.90;;;16.50;99.90;;;;;;4997139;28;20290;-88
2021/08/17 12:30:29;;;;;;;5.23;2.83;;;16.60;99.90;;;;;;4991961;28;20227;-86
2021/08/17 12:32:57;;;;;;;8.93;2.85;;;16.60;99.90;;;;;;4997576;28;20496;-85
2021/08/17 12:35:28;;;;;;;8.35;3.40;;;16.70;99.90;;;;;;5011078;28;20200;-81
2021/08/17 12:37:56;;;;;;;8.73;3.83;;;16.90;99.90;;;;;;4996106;28;20225;-83
2021/08/17 12:40:23;;;;;;;7.70;3.28;;;16.90;99.90;;;;;;4991459;28;20859;-85
2021/08/17 12:42:50;;;;;;;7.95;2.75;;;16.90;99.90;;;;;;4991793;28;20219;-84
2021/08/17 12:45:31;;;;;;;5.07;2.47;;;16.90;99.90;;;;;;4992219;28;20589;-85
2021/08/17 12:48:00;;;;;;;5.57;2.25;;;16.90;99.90;;;;;;5001866;28;20195;-83
2021/08/17 12:50:37;;;;;;;9.20;1.92;;;16.90;99.90;;;;;;4998918;28;20227;-86